createdAt,value
2022-10-03T00:00:31.734Z,2.34
2022-10-03T00:05:38.077Z,2.17
2022-10-03T00:10:44.407Z,2.85
2022-10-03T00:15:53.814Z,1.78
2022-10-03T00:21:00.131Z,1.88
2022-10-03T00:26:06.530Z,1.78
2022-10-03T00:31:12.929Z,1.59
2022-10-03T00:36:20.537Z,2.00
2022-10-03T00:41:26.818Z,2.37
2022-10-03T00:46:33.211Z,2.24
2022-10-03T00:51:40.078Z,2.47
2022-10-03T00:56:45.741Z,2.26
2022-10-03T01:01:52.340Z,1.87
2022-10-03T01:06:58.633Z,1.89
2022-10-03T01:12:04.963Z,2.60
2022-10-03T01:17:11.284Z,1.84
2022-10-03T01:22:17.761Z,1.85
2022-10-03T01:27:24.144Z,1.81
2022-10-03T01:32:30.565Z,1.90
2022-10-03T01:37:36.918Z,1.73
2022-10-03T01:42:43.257Z,1.37
2022-10-03T01:47:49.603Z,1.68
2022-10-03T01:52:55.927Z,2.55
2022-10-03T01:58:02.339Z,1.93
2022-10-03T02:03:08.703Z,2.73
2022-10-03T02:08:15.043Z,1.72
2022-10-03T02:13:21.364Z,2.93
2022-10-03T02:18:27.691Z,1.83
2022-10-03T02:23:34.083Z,1.90
2022-10-03T02:28:40.453Z,2.04
2022-10-03T02:33:46.817Z,1.87
2022-10-03T02:38:53.100Z,1.89
2022-10-03T02:43:59.553Z,1.70
2022-10-03T02:49:06.051Z,2.62
2022-10-03T02:54:12.540Z,2.91
2022-10-03T02:59:18.925Z,3.11
2022-10-03T03:04:26.463Z,2.12
2022-10-03T03:09:32.910Z,2.33
2022-10-03T03:14:39.364Z,3.19
2022-10-03T03:19:45.815Z,2.21
2022-10-03T03:24:52.131Z,2.04
2022-10-03T03:29:58.499Z,2.26
2022-10-03T03:35:05.022Z,2.51
2022-10-03T03:40:12.445Z,2.63
2022-10-03T03:45:18.925Z,4.15
2022-10-03T03:50:25.935Z,4.35
2022-10-03T03:55:32.191Z,2.92
2022-10-03T04:00:38.555Z,2.66
2022-10-03T04:05:44.893Z,2.48
2022-10-03T04:10:51.481Z,3.37
2022-10-03T04:15:57.951Z,3.89
2022-10-03T04:21:04.279Z,2.09
2022-10-03T04:26:10.549Z,3.21
2022-10-03T04:31:16.938Z,2.33
2022-10-03T04:36:23.423Z,2.48
2022-10-03T04:41:29.851Z,3.59
2022-10-03T04:46:36.276Z,2.39
2022-10-03T04:51:42.649Z,2.28
2022-10-03T04:56:49.037Z,2.01
2022-10-03T05:01:55.397Z,2.20
2022-10-03T05:07:01.746Z,3.22
2022-10-03T05:12:08.051Z,3.25
2022-10-03T05:17:14.429Z,2.15
2022-10-03T05:22:20.936Z,2.19
2022-10-03T05:27:27.310Z,2.10
2022-10-03T05:32:33.778Z,2.15
2022-10-03T05:37:40.087Z,2.11
2022-10-03T05:42:46.337Z,2.16
2022-10-03T05:47:52.557Z,3.29
2022-10-03T05:52:58.824Z,2.16
2022-10-03T05:58:05.317Z,2.42
2022-10-03T06:03:11.715Z,3.49
2022-10-03T06:08:18.025Z,3.97
2022-10-03T06:13:24.342Z,2.30
2022-10-03T06:18:30.600Z,2.46
2022-10-03T06:23:38.963Z,2.47
2022-10-03T06:28:45.233Z,2.89
2022-10-03T06:33:51.540Z,2.73
2022-10-03T06:38:57.994Z,2.67
2022-10-03T06:44:04.360Z,2.59
2022-10-03T06:49:12.018Z,2.37
2022-10-03T06:54:18.172Z,3.67
2022-10-03T06:59:25.629Z,3.08
2022-10-03T07:04:31.958Z,2.63
2022-10-03T07:09:38.301Z,2.76
2022-10-03T07:14:44.608Z,2.87
2022-10-03T07:19:50.888Z,2.96
2022-10-03T07:24:57.206Z,2.97
2022-10-03T07:30:03.497Z,3.05
2022-10-03T07:35:09.770Z,3.04
2022-10-03T07:40:16.189Z,2.85
2022-10-03T07:45:22.481Z,4.25
2022-10-03T07:50:29.308Z,4.41
2022-10-03T07:55:35.664Z,3.16
2022-10-03T08:00:41.906Z,4.66
2022-10-03T08:05:48.223Z,2.91
2022-10-03T08:10:54.439Z,3.13
2022-10-03T08:16:00.726Z,3.13
2022-10-03T08:21:07.009Z,4.73
2022-10-03T08:26:14.675Z,3.44
2022-10-03T08:31:20.923Z,3.83
2022-10-03T08:36:27.152Z,4.13
2022-10-03T08:41:33.883Z,5.89
2022-10-03T08:46:40.205Z,4.25
2022-10-03T08:51:46.324Z,4.18
2022-10-03T08:56:52.548Z,6.07
2022-10-03T09:01:58.779Z,4.47
2022-10-03T09:07:17.096Z,4.47
2022-10-03T09:12:10.854Z,4.41
2022-10-03T09:17:17.166Z,6.05
2022-10-03T09:22:23.505Z,4.22
2022-10-03T09:27:29.762Z,6.02
2022-10-03T09:32:35.974Z,4.25
2022-10-03T09:37:42.216Z,4.51
2022-10-03T09:42:48.495Z,4.18
2022-10-03T09:47:54.853Z,5.78
2022-10-03T09:53:01.065Z,4.68
2022-10-03T09:58:07.387Z,4.35
2022-10-03T10:03:13.595Z,3.94
2022-10-03T10:08:19.849Z,3.71
2022-10-03T10:13:26.277Z,4.23
2022-10-03T10:18:32.530Z,3.50
2022-10-03T10:23:38.816Z,4.18
2022-10-03T10:28:45.095Z,3.07
2022-10-03T10:33:51.377Z,4.64
2022-10-03T10:38:58.815Z,2.66
2022-10-03T10:44:05.206Z,2.47
2022-10-03T10:49:11.447Z,3.20
2022-10-03T10:54:17.803Z,2.45
2022-10-03T10:59:24.720Z,2.16
2022-10-03T11:04:30.955Z,2.29
2022-10-03T11:09:37.118Z,2.04
2022-10-03T11:14:44.067Z,1.53
2022-10-03T11:19:50.361Z,1.81
2022-10-03T11:24:56.669Z,2.79
2022-10-03T11:30:03.036Z,1.44
2022-10-03T11:35:09.349Z,1.65
2022-10-03T11:40:15.750Z,1.75
2022-10-03T11:45:21.952Z,1.40
2022-10-03T11:50:28.223Z,1.52
2022-10-03T11:55:34.574Z,1.28
2022-10-03T12:00:40.859Z,0.90
2022-10-03T12:05:47.407Z,1.76
2022-10-03T12:10:53.657Z,1.24
2022-10-03T12:16:01.346Z,1.79
2022-10-03T12:21:06.607Z,1.16
2022-10-03T12:26:12.796Z,1.23
2022-10-03T12:31:19.360Z,1.62
2022-10-03T12:36:24.776Z,1.10
2022-10-03T12:41:31.371Z,1.46
2022-10-03T12:46:37.715Z,1.47
2022-10-03T12:51:44.286Z,1.38
2022-10-03T12:56:50.537Z,1.25
2022-10-03T13:01:56.906Z,1.55
2022-10-03T13:07:04.640Z,2.29
2022-10-03T13:12:09.390Z,1.30
2022-10-03T13:18:08.602Z,1.30
2022-10-03T13:22:24.899Z,2.63
2022-10-03T13:27:31.198Z,1.97
2022-10-03T13:32:37.465Z,1.88
2022-10-03T13:37:43.904Z,1.83
2022-10-03T13:42:50.933Z,1.04
2022-10-03T13:47:57.243Z,1.12
2022-10-03T13:53:04.909Z,1.03
2022-10-03T13:58:11.161Z,1.05
2022-10-03T14:03:17.698Z,1.06
2022-10-03T14:08:24.048Z,1.20
2022-10-03T14:13:30.519Z,1.18
2022-10-03T14:18:36.858Z,1.10
2022-10-03T14:23:43.092Z,1.16
2022-10-03T14:28:49.382Z,1.03
2022-10-03T14:33:55.630Z,1.07
2022-10-03T14:39:01.965Z,1.58
2022-10-03T14:44:13.152Z,1.35
2022-10-03T14:49:32.932Z,1.56
2022-10-03T14:54:19.771Z,1.08
2022-10-03T14:59:27.269Z,1.06
2022-10-03T15:04:33.552Z,1.95
2022-10-03T15:09:39.729Z,1.76
2022-10-03T15:14:47.907Z,1.28
2022-10-03T15:19:54.275Z,1.22
2022-10-03T15:25:00.520Z,1.27
2022-10-03T15:30:06.832Z,1.95
2022-10-03T15:35:13.030Z,1.24
2022-10-03T15:40:20.865Z,1.12
2022-10-03T15:45:27.134Z,1.29
2022-10-03T15:50:34.883Z,1.40
2022-10-03T15:55:45.791Z,1.13
2022-10-03T16:00:43.210Z,1.37
2022-10-03T16:05:49.424Z,2.35
2022-10-03T16:10:55.682Z,3.86
2022-10-03T16:16:02.067Z,1.69
2022-10-03T16:21:09.422Z,1.49
2022-10-03T16:26:17.646Z,1.22
2022-10-03T16:31:24.089Z,1.32
2022-10-03T16:36:33.184Z,1.70
2022-10-03T16:41:39.635Z,1.41
2022-10-03T16:46:45.798Z,1.46
2022-10-03T16:51:51.991Z,1.48
2022-10-03T16:56:58.347Z,1.69
2022-10-03T17:02:04.799Z,1.74
2022-10-03T17:07:12.159Z,1.23
2022-10-03T17:12:18.525Z,1.64
2022-10-03T17:17:24.739Z,1.91
2022-10-03T17:22:30.996Z,2.38
2022-10-03T17:27:37.377Z,2.97
2022-10-03T17:32:43.659Z,2.57
2022-10-03T17:37:52.569Z,3.24
2022-10-03T17:42:58.843Z,4.74
2022-10-03T17:48:06.265Z,1.68
2022-10-03T17:53:12.576Z,1.27
2022-10-03T17:58:18.861Z,2.21
2022-10-03T18:03:25.140Z,1.59
2022-10-03T18:08:33.511Z,1.61
2022-10-03T18:13:39.984Z,1.50
2022-10-03T18:18:46.286Z,2.03
2022-10-03T18:23:54.711Z,1.52
2022-10-03T18:28:58.559Z,1.49
2022-10-03T18:34:04.899Z,1.60
2022-10-03T18:39:11.187Z,1.83
2022-10-03T18:44:18.292Z,1.84
2022-10-03T18:49:34.015Z,2.74
2022-10-03T18:54:35.016Z,1.77
2022-10-03T18:59:41.409Z,1.66
2022-10-03T19:04:47.795Z,1.66
2022-10-03T19:09:54.376Z,2.51
2022-10-03T19:15:00.691Z,2.25
2022-10-03T19:20:08.162Z,8.38
2022-10-03T19:25:13.680Z,3.08
2022-10-03T19:30:20.004Z,2.22
2022-10-03T19:35:29.773Z,1.55
2022-10-03T19:41:46.471Z,1.81
2022-10-03T19:45:42.967Z,1.80
2022-10-03T19:50:49.177Z,2.26
2022-10-03T19:55:55.477Z,3.72
2022-10-03T20:01:02.540Z,2.54
2022-10-03T20:06:08.650Z,4.32
2022-10-03T20:11:14.910Z,3.32
2022-10-03T20:16:21.321Z,2.81
2022-10-03T20:21:27.625Z,2.09
2022-10-03T20:26:33.972Z,2.38
2022-10-03T20:31:44.968Z,2.35
2022-10-03T20:36:41.250Z,2.75
2022-10-03T20:41:47.528Z,4.95
2022-10-03T20:46:59.983Z,3.32
2022-10-03T20:51:56.325Z,3.21
2022-10-03T20:57:08.571Z,3.26
2022-10-03T21:02:05.204Z,2.63
2022-10-03T21:07:11.361Z,2.52
2022-10-03T21:12:17.718Z,3.01
2022-10-03T21:17:24.018Z,3.00
2022-10-03T21:22:30.318Z,2.73
2022-10-03T21:27:36.527Z,4.52
2022-10-03T21:32:43.015Z,3.45
2022-10-03T21:37:49.227Z,5.82
2022-10-03T21:42:55.453Z,3.52
2022-10-03T21:48:08.037Z,4.01
2022-10-03T21:53:04.334Z,3.79
2022-10-03T21:58:10.672Z,3.66
2022-10-03T22:03:16.984Z,3.14
2022-10-03T22:08:23.198Z,3.17
2022-10-03T22:13:29.475Z,2.96
2022-10-03T22:18:35.821Z,3.05
2022-10-03T22:23:42.139Z,2.89
2022-10-03T22:28:48.671Z,2.91
2022-10-03T22:33:56.481Z,2.93
2022-10-03T22:39:04.088Z,4.22
2022-10-03T22:44:12.900Z,4.49
2022-10-03T22:49:19.309Z,3.47
2022-10-03T22:54:25.617Z,3.90
2022-10-03T22:59:31.945Z,2.63
2022-10-03T23:04:38.301Z,2.78
2022-10-03T23:09:44.584Z,2.61
2022-10-03T23:14:50.931Z,2.80
2022-10-03T23:19:57.233Z,4.09
2022-10-03T23:25:03.432Z,2.69
2022-10-03T23:30:09.617Z,2.90
2022-10-03T23:35:15.967Z,3.04
2022-10-03T23:40:22.179Z,4.39
2022-10-03T23:45:29.576Z,3.42
2022-10-03T23:50:34.237Z,3.83
2022-10-03T23:55:40.529Z,3.71
